Time,TemperatureF,DewpointF,PressureIn,WindDirection,WindDirectionDegrees,WindSpeedMPH,WindSpeedGustMPH,Humidity,HourlyPrecipIn,Conditions,Clouds,dailyrainin,SoftwareType,DateUTC
2013-02-26 00:00:00,72.2,69.4,29.85,South,178,0.0,5.0,91,0.00,,,0.00,Wunderground v.1.15,2013-02-26 05:00:00,
2013-02-26 00:05:00,72.1,69.6,29.85,South,182,0.0,5.0,92,0.00,,,0.00,Wunderground v.1.15,2013-02-26 05:05:00,
2013-02-26 00:10:00,72.1,69.6,29.85,South,188,1.0,1.0,92,0.00,,,0.00,Wunderground v.1.15,2013-02-26 05:10:00,
2013-02-26 00:15:00,71.9,69.4,29.85,South,190,1.0,2.0,92,0.00,,,0.00,Wunderground v.1.15,2013-02-26 05:15:00,
2013-02-26 00:20:00,71.8,69.3,29.85,SSW,194,1.0,1.0,92,0.00,,,0.00,Wunderground v.1.15,2013-02-26 05:20:00,
2013-02-26 00:25:00,71.8,69.3,29.85,SSW,192,1.0,2.0,92,0.00,,,0.00,Wunderground v.1.15,2013-02-26 05:25:00,
2013-02-26 00:35:00,71.9,69.4,29.85,SW,224,1.0,2.0,92,0.00,,,0.00,Wunderground v.1.15,2013-02-26 05:35:00,
2013-02-26 00:40:00,71.7,69.3,29.84,SSW,193,1.0,1.0,92,0.00,,,0.00,Wunderground v.1.15,2013-02-26 05:40:00,
2013-02-26 00:45:00,71.6,69.5,29.84,South,178,1.0,2.0,93,0.00,,,0.00,Wunderground v.1.15,2013-02-26 05:45:00,
2013-02-26 00:50:00,71.5,69.4,29.84,South,186,1.0,1.0,93,0.00,,,0.00,Wunderground v.1.15,2013-02-26 05:50:00,
2013-02-26 00:55:00,71.5,69.4,29.84,SW,215,1.0,4.0,93,0.00,,,0.00,Wunderground v.1.15,2013-02-26 05:55:00,
2013-02-26 01:00:00,71.5,69.4,29.84,SE,126,1.0,1.0,93,0.00,,,0.00,Wunderground v.1.15,2013-02-26 06:00:00,
2013-02-26 01:10:00,71.9,69.8,29.83,South,178,1.0,7.0,93,0.00,,,0.00,Wunderground v.1.15,2013-02-26 06:10:00,
2013-02-26 01:20:00,72.3,70.2,29.84,SE,140,2.0,6.0,93,0.00,,,0.00,Wunderground v.1.15,2013-02-26 06:20:00,
2013-02-26 01:30:00,72.6,70.5,29.82,SE,132,2.0,2.0,93,0.00,,,0.00,Wunderground v.1.15,2013-02-26 06:30:00,
2013-02-26 01:35:00,72.7,70.6,29.82,South,186,1.0,6.0,93,0.00,,,0.00,Wunderground v.1.15,2013-02-26 06:35:00,
2013-02-26 01:40:00,72.8,70.7,29.82,NNE,14,2.0,2.0,93,0.00,,,0.00,Wunderground v.1.15,2013-02-26 06:40:00,
2013-02-26 01:45:00,72.9,70.8,29.82,WNW,288,2.0,6.0,93,0.00,,,0.00,Wunderground v.1.15,2013-02-26 06:45:00,
2013-02-26 01:50:00,73.1,71.0,29.82,WNW,289,2.0,6.0,93,0.00,,,0.00,Wunderground v.1.15,2013-02-26 06:50:00,
2013-02-26 01:55:00,73.1,71.0,29.81,NE,43,1.0,6.0,93,0.00,,,0.00,Wunderground v.1.15,2013-02-26 06:55:00,
2013-02-26 02:00:00,73.2,71.1,29.81,SW,225,2.0,2.0,93,0.00,,,0.00,Wunderground v.1.15,2013-02-26 07:00:00,
2013-02-26 02:10:00,73.3,71.2,29.82,SE,129,1.0,1.0,93,0.00,,,0.00,Wunderground v.1.15,2013-02-26 07:10:00,
2013-02-26 02:15:00,73.3,71.2,29.81,SE,134,1.0,9.0,93,0.00,,,0.00,Wunderground v.1.15,2013-02-26 07:15:00,
2013-02-26 02:20:00,73.2,71.1,29.81,SW,215,1.0,1.0,93,0.00,,,0.00,Wunderground v.1.15,2013-02-26 07:20:00,
2013-02-26 02:25:00,73.1,71.0,29.81,WNW,286,1.0,4.0,93,0.00,,,0.00,Wunderground v.1.15,2013-02-26 07:25:00,
2013-02-26 02:30:00,73.0,70.9,29.81,SSE,151,1.0,9.0,93,0.00,,,0.00,Wunderground v.1.15,2013-02-26 07:30:00,
2013-02-26 02:35:00,73.0,70.9,29.82,SSW,213,1.0,9.0,93,0.00,,,0.00,Wunderground v.1.15,2013-02-26 07:35:00,
2013-02-26 02:45:00,72.9,71.1,29.81,SSW,193,0.0,9.0,94,0.00,,,0.00,Wunderground v.1.15,2013-02-26 07:45:00,
2013-02-26 02:50:00,72.7,70.9,29.81,South,188,0.0,9.0,94,0.00,,,0.00,Wunderground v.1.15,2013-02-26 07:50:00,
2013-02-26 02:55:00,72.6,70.8,29.82,West,259,0.0,9.0,94,0.00,,,0.00,Wunderground v.1.15,2013-02-26 07:55:00,
2013-02-26 03:00:00,72.6,70.8,29.82,SSW,203,1.0,1.0,94,0.00,,,0.00,Wunderground v.1.15,2013-02-26 08:00:00,
2013-02-26 03:10:00,72.6,70.8,29.82,South,190,0.0,2.0,94,0.00,,,0.00,Wunderground v.1.15,2013-02-26 08:10:00,
2013-02-26 03:20:00,72.5,71.0,29.82,South,175,0.0,2.0,95,0.00,,,0.00,Wunderground v.1.15,2013-02-26 08:20:00,
2013-02-26 03:25:00,72.4,70.9,29.82,South,171,0.0,2.0,95,0.00,,,0.00,Wunderground v.1.15,2013-02-26 08:25:00,
2013-02-26 03:30:00,72.4,70.9,29.81,South,185,0.0,6.0,95,0.00,,,0.00,Wunderground v.1.15,2013-02-26 08:30:00,
2013-02-26 03:35:00,72.4,70.9,29.82,South,186,0.0,6.0,95,0.00,,,0.00,Wunderground v.1.15,2013-02-26 08:35:00,
2013-02-26 03:40:00,72.4,70.9,29.81,South,189,0.0,2.0,95,0.00,,,0.00,Wunderground v.1.15,2013-02-26 08:40:00,
2013-02-26 03:45:00,72.4,70.9,29.82,South,189,0.0,2.0,95,0.00,,,0.00,Wunderground v.1.15,2013-02-26 08:45:00,
2013-02-26 03:55:00,72.3,70.8,29.81,South,182,0.0,2.0,95,0.00,,,0.00,Wunderground v.1.15,2013-02-26 08:55:00,
2013-02-26 04:00:00,72.2,70.7,29.81,South,181,0.0,3.0,95,0.00,,,0.00,Wunderground v.1.15,2013-02-26 09:00:00,
2013-02-26 04:10:00,72.1,70.6,29.81,South,182,0.0,3.0,95,0.00,,,0.00,Wunderground v.1.15,2013-02-26 09:10:00,
2013-02-26 04:15:00,72.1,70.6,29.81,South,180,0.0,3.0,95,0.00,,,0.00,Wunderground v.1.15,2013-02-26 09:15:00,
2013-02-26 04:20:00,72.0,70.5,29.81,SSW,196,0.0,3.0,95,0.00,,,0.00,Wunderground v.1.15,2013-02-26 09:20:00,
2013-02-26 04:30:00,71.9,70.4,29.80,South,182,0.0,3.0,95,0.00,,,0.00,Wunderground v.1.15,2013-02-26 09:30:00,
2013-02-26 04:35:00,71.9,70.4,29.81,South,182,0.0,3.0,95,0.00,,,0.00,Wunderground v.1.15,2013-02-26 09:35:00,
2013-02-26 04:40:00,71.8,70.3,29.79,South,182,0.0,3.0,95,0.00,,,0.00,Wunderground v.1.15,2013-02-26 09:40:00,
2013-02-26 04:45:00,71.7,70.2,29.80,South,177,0.0,3.0,95,0.00,,,0.00,Wunderground v.1.15,2013-02-26 09:45:00,
2013-02-26 04:50:00,71.7,70.5,29.79,South,177,0.0,3.0,96,0.00,,,0.00,Wunderground v.1.15,2013-02-26 09:50:00,
2013-02-26 05:00:00,71.6,70.4,29.80,SW,223,0.0,0.0,96,0.00,,,0.00,Wunderground v.1.15,2013-02-26 10:00:00,
2013-02-26 05:10:00,71.6,70.4,29.80,ESE,119,0.0,0.0,96,0.00,,,0.00,Wunderground v.1.15,2013-02-26 10:10:00,
2013-02-26 05:15:00,71.6,70.4,29.81,SE,142,0.0,0.0,96,0.00,,,0.00,Wunderground v.1.15,2013-02-26 10:15:00,
2013-02-26 05:25:00,71.5,70.0,29.80,SSE,159,0.0,0.0,95,0.00,,,0.00,Wunderground v.1.15,2013-02-26 10:25:00,
2013-02-26 05:30:00,71.4,69.9,29.81,SSE,167,0.0,0.0,95,0.00,,,0.00,Wunderground v.1.15,2013-02-26 10:30:00,
2013-02-26 05:35:00,71.4,70.2,29.81,South,178,0.0,0.0,96,0.00,,,0.00,Wunderground v.1.15,2013-02-26 10:35:00,
2013-02-26 05:40:00,71.4,69.9,29.81,South,179,0.0,0.0,95,0.00,,,0.00,Wunderground v.1.15,2013-02-26 10:40:00,
2013-02-26 05:50:00,71.2,70.0,29.80,South,185,0.0,0.0,96,0.00,,,0.00,Wunderground v.1.15,2013-02-26 10:50:00,
2013-02-26 05:55:00,71.2,70.0,29.81,South,188,0.0,0.0,96,0.00,,,0.00,Wunderground v.1.15,2013-02-26 10:55:00,
2013-02-26 06:00:00,71.2,70.0,29.81,SSW,202,0.0,0.0,96,0.00,,,0.00,Wunderground v.1.15,2013-02-26 11:00:00,
2013-02-26 06:10:00,71.3,70.1,29.82,SSW,192,0.0,0.0,96,0.00,,,0.00,Wunderground v.1.15,2013-02-26 11:10:00,
2013-02-26 06:15:00,71.3,70.1,29.82,SSW,192,0.0,0.0,96,0.00,,,0.00,Wunderground v.1.15,2013-02-26 11:15:00,
2013-02-26 06:20:00,71.3,70.1,29.83,SSW,192,0.0,0.0,96,0.00,,,0.00,Wunderground v.1.15,2013-02-26 11:20:00,
2013-02-26 06:25:00,71.2,70.0,29.83,SSW,192,0.0,0.0,96,0.00,,,0.00,Wunderground v.1.15,2013-02-26 11:25:00,
2013-02-26 06:30:00,71.1,69.9,29.84,SSW,192,0.0,0.0,96,0.00,,,0.00,Wunderground v.1.15,2013-02-26 11:30:00,
2013-02-26 06:40:00,71.0,69.8,29.84,SSW,192,0.0,0.0,96,0.00,,,0.00,Wunderground v.1.15,2013-02-26 11:40:00,
2013-02-26 06:45:00,70.9,69.7,29.84,SSW,192,0.0,0.0,96,0.00,,,0.00,Wunderground v.1.15,2013-02-26 11:45:00,
2013-02-26 06:50:00,70.7,69.5,29.84,SSW,197,0.0,0.0,96,0.00,,,0.00,Wunderground v.1.15,2013-02-26 11:50:00,
2013-02-26 06:55:00,70.6,69.4,29.84,SSW,200,0.0,0.0,96,0.00,,,0.00,Wunderground v.1.15,2013-02-26 11:55:00,
2013-02-26 07:00:00,70.6,69.4,29.84,SSW,200,0.0,0.0,96,0.00,,,0.00,Wunderground v.1.15,2013-02-26 12:00:00,
2013-02-26 07:10:00,70.7,69.5,29.84,SSW,197,0.0,0.0,96,0.00,,,0.00,Wunderground v.1.15,2013-02-26 12:10:00,
2013-02-26 07:15:00,70.8,69.9,29.85,SSW,194,0.0,0.0,97,0.00,,,0.00,Wunderground v.1.15,2013-02-26 12:15:00,
2013-02-26 07:20:00,71.0,70.1,29.85,SSW,194,0.0,0.0,97,0.00,,,0.00,Wunderground v.1.15,2013-02-26 12:20:00,
2013-02-26 07:25:00,71.1,70.2,29.85,SSW,194,0.0,0.0,97,0.00,,,0.00,Wunderground v.1.15,2013-02-26 12:25:00,
2013-02-26 07:30:00,71.2,70.3,29.84,SSW,193,0.0,0.0,97,0.00,,,0.00,Wunderground v.1.15,2013-02-26 12:30:00,
2013-02-26 07:35:00,71.2,70.0,29.85,South,190,0.0,0.0,96,0.00,,,0.00,Wunderground v.1.15,2013-02-26 12:35:00,
2013-02-26 07:40:00,71.4,70.2,29.85,South,178,0.0,0.0,96,0.00,,,0.00,Wunderground v.1.15,2013-02-26 12:40:00,
2013-02-26 07:50:00,72.0,70.8,29.85,South,175,0.0,0.0,96,0.00,,,0.00,Wunderground v.1.15,2013-02-26 12:50:00,
2013-02-26 07:55:00,72.4,71.2,29.85,South,179,0.0,0.0,96,0.00,,,0.00,Wunderground v.1.15,2013-02-26 12:55:00,
2013-02-26 08:00:00,72.8,71.3,29.85,South,174,1.0,1.0,95,0.00,,,0.00,Wunderground v.1.15,2013-02-26 13:00:00,
2013-02-26 08:10:00,73.9,72.1,29.85,SSE,165,1.0,1.0,94,0.00,,,0.00,Wunderground v.1.15,2013-02-26 13:10:00,
2013-02-26 08:20:00,74.9,72.4,29.86,SE,132,1.0,1.0,92,0.00,,,0.00,Wunderground v.1.15,2013-02-26 13:20:00,
2013-02-26 08:30:00,75.9,72.4,29.86,SW,219,1.0,1.0,89,0.00,,,0.00,Wunderground v.1.15,2013-02-26 13:30:00,
2013-02-26 08:35:00,76.3,72.8,29.86,South,185,2.0,6.0,89,0.00,,,0.00,Wunderground v.1.15,2013-02-26 13:35:00,
2013-02-26 08:45:00,76.9,72.7,29.86,West,270,3.0,3.0,87,0.00,,,0.00,Wunderground v.1.15,2013-02-26 13:45:00,
2013-02-26 08:55:00,78.0,73.1,29.87,South,169,3.0,9.0,85,0.00,,,0.00,Wunderground v.1.15,2013-02-26 13:55:00,
2013-02-26 09:00:00,78.6,73.4,29.87,WNW,290,2.0,5.0,84,0.00,,,0.00,Wunderground v.1.15,2013-02-26 14:00:00,
2013-02-26 09:10:00,78.6,73.0,29.88,South,175,3.0,3.0,83,0.00,,,0.00,Wunderground v.1.15,2013-02-26 14:10:00,
2013-02-26 09:15:00,78.7,72.7,29.88,South,171,3.0,5.0,82,0.00,,,0.00,Wunderground v.1.15,2013-02-26 14:15:00,
2013-02-26 09:25:00,79.1,72.4,29.88,West,261,4.0,7.0,80,0.00,,,0.00,Wunderground v.1.15,2013-02-26 14:25:00,
2013-02-26 09:30:00,79.4,71.6,29.88,SE,137,5.0,5.0,77,0.00,,,0.00,Wunderground v.1.15,2013-02-26 14:30:00,
2013-02-26 09:40:00,79.7,71.5,29.88,West,276,5.0,7.0,76,0.00,,,0.00,Wunderground v.1.15,2013-02-26 14:40:00,
2013-02-26 09:45:00,80.2,71.2,29.88,SE,145,5.0,7.0,74,0.00,,,0.00,Wunderground v.1.15,2013-02-26 14:45:00,
2013-02-26 09:50:00,80.0,71.4,29.88,West,259,6.0,6.0,75,0.00,,,0.00,Wunderground v.1.15,2013-02-26 14:50:00,
2013-02-26 10:00:00,80.3,71.3,29.88,NW,313,6.0,11.0,74,0.00,,,0.00,Wunderground v.1.15,2013-02-26 15:00:00,
2013-02-26 10:10:00,80.2,70.8,29.89,West,269,7.0,7.0,73,0.00,,,0.00,Wunderground v.1.15,2013-02-26 15:10:00,
2013-02-26 10:15:00,80.2,71.2,29.88,SSW,192,7.0,11.0,74,0.00,,,0.00,Wunderground v.1.15,2013-02-26 15:15:00,
2013-02-26 10:20:00,80.2,71.2,29.88,South,174,6.0,11.0,74,0.00,,,0.00,Wunderground v.1.15,2013-02-26 15:20:00,
2013-02-26 10:25:00,80.7,71.2,29.88,WNW,289,7.0,11.0,73,0.00,,,0.00,Wunderground v.1.15,2013-02-26 15:25:00,
2013-02-26 10:35:00,81.2,70.9,29.89,NW,320,7.0,11.0,71,0.00,,,0.00,Wunderground v.1.15,2013-02-26 15:35:00,
2013-02-26 10:40:00,81.2,70.9,29.89,East,99,7.0,11.0,71,0.00,,,0.00,Wunderground v.1.15,2013-02-26 15:40:00,
2013-02-26 10:50:00,81.1,71.2,29.89,NNW,348,6.0,11.0,72,0.00,,,0.00,Wunderground v.1.15,2013-02-26 15:50:00,
2013-02-26 11:00:00,81.3,71.0,29.90,South,188,7.0,11.0,71,0.00,,,0.00,Wunderground v.1.15,2013-02-26 16:00:00,
2013-02-26 11:10:00,81.6,71.3,29.89,WNW,293,7.0,11.0,71,0.00,,,0.00,Wunderground v.1.15,2013-02-26 16:10:00,
2013-02-26 11:15:00,81.7,71.4,29.89,NNE,21,7.0,11.0,71,0.00,,,0.00,Wunderground v.1.15,2013-02-26 16:15:00,
2013-02-26 11:20:00,82.3,71.5,29.90,SW,221,7.0,7.0,70,0.00,,,0.00,Wunderground v.1.15,2013-02-26 16:20:00,
2013-02-26 11:30:00,83.2,72.0,29.90,NNW,343,8.0,8.0,69,0.00,,,0.00,Wunderground v.1.15,2013-02-26 16:30:00,
2013-02-26 11:40:00,83.4,70.8,29.89,WNW,287,7.0,12.0,66,0.00,,,0.00,Wunderground v.1.15,2013-02-26 16:40:00,
2013-02-26 11:45:00,82.9,70.8,29.89,North,355,8.0,12.0,67,0.00,,,0.00,Wunderground v.1.15,2013-02-26 16:45:00,
2013-02-26 11:50:00,82.8,70.7,29.89,NNE,32,9.0,9.0,67,0.00,,,0.00,Wunderground v.1.15,2013-02-26 16:50:00,
2013-02-26 11:55:00,83.0,71.3,29.88,NNE,19,8.0,11.0,68,0.00,,,0.00,Wunderground v.1.15,2013-02-26 16:55:00,
2013-02-26 12:00:00,83.6,71.0,29.89,NW,315,7.0,12.0,66,0.00,,,0.00,Wunderground v.1.15,2013-02-26 17:00:00,
2013-02-26 12:10:00,83.6,71.5,29.89,East,83,9.0,9.0,67,0.00,,,0.00,Wunderground v.1.15,2013-02-26 17:10:00,
2013-02-26 12:15:00,83.5,71.8,29.89,WNW,284,8.0,12.0,68,0.00,,,0.00,Wunderground v.1.15,2013-02-26 17:15:00,
2013-02-26 12:20:00,82.9,71.3,29.88,SW,235,9.0,12.0,68,0.00,,,0.00,Wunderground v.1.15,2013-02-26 17:20:00,
2013-02-26 12:25:00,82.9,71.7,29.87,ESE,111,9.0,12.0,69,0.00,,,0.00,Wunderground v.1.15,2013-02-26 17:25:00,
2013-02-26 12:30:00,83.4,71.7,29.87,West,271,9.0,18.0,68,0.00,,,0.00,Wunderground v.1.15,2013-02-26 17:30:00,
2013-02-26 12:35:00,83.8,71.2,29.87,WNW,288,9.0,18.0,66,0.00,,,0.00,Wunderground v.1.15,2013-02-26 17:35:00,
2013-02-26 12:45:00,83.8,71.7,29.88,WNW,291,7.0,12.0,67,0.00,,,0.00,Wunderground v.1.15,2013-02-26 17:45:00,
2013-02-26 12:50:00,83.8,71.7,29.88,ENE,57,7.0,12.0,67,0.00,,,0.00,Wunderground v.1.15,2013-02-26 17:50:00,
2013-02-26 12:55:00,83.7,71.6,29.87,SE,126,7.0,12.0,67,0.00,,,0.00,Wunderground v.1.15,2013-02-26 17:55:00,
2013-02-26 13:00:00,83.5,71.8,29.86,West,263,8.0,16.0,68,0.00,,,0.00,Wunderground v.1.15,2013-02-26 18:00:00,
2013-02-26 13:10:00,83.8,71.7,29.86,ENE,57,8.0,16.0,67,0.00,,,0.00,Wunderground v.1.15,2013-02-26 18:10:00,
2013-02-26 13:20:00,83.7,71.6,29.85,ESE,111,8.0,8.0,67,0.00,,,0.00,Wunderground v.1.15,2013-02-26 18:20:00,
2013-02-26 13:25:00,83.6,71.5,29.85,South,184,8.0,12.0,67,0.00,,,0.00,Wunderground v.1.15,2013-02-26 18:25:00,
2013-02-26 13:30:00,83.2,71.1,29.86,East,101,8.0,8.0,67,0.00,,,0.00,Wunderground v.1.15,2013-02-26 18:30:00,
2013-02-26 13:35:00,83.8,71.2,29.85,WNW,286,8.0,16.0,66,0.00,,,0.00,Wunderground v.1.15,2013-02-26 18:35:00,
2013-02-26 13:40:00,84.6,72.0,29.85,WNW,288,8.0,16.0,66,0.00,,,0.00,Wunderground v.1.15,2013-02-26 18:40:00,
2013-02-26 13:45:00,84.7,72.1,29.85,SE,135,7.0,16.0,66,0.00,,,0.00,Wunderground v.1.15,2013-02-26 18:45:00,
2013-02-26 13:55:00,83.7,71.6,29.84,SSE,164,7.0,16.0,67,0.00,,,0.00,Wunderground v.1.15,2013-02-26 18:55:00,
2013-02-26 14:00:00,83.9,71.8,29.84,NW,306,8.0,8.0,67,0.00,,,0.00,Wunderground v.1.15,2013-02-26 19:00:00,
2013-02-26 14:10:00,85.0,71.0,29.84,SE,140,8.0,12.0,63,0.00,,,0.00,Wunderground v.1.15,2013-02-26 19:10:00,
2013-02-26 14:15:00,84.9,71.4,29.84,SW,236,8.0,12.0,64,0.00,,,0.00,Wunderground v.1.15,2013-02-26 19:15:00,
2013-02-26 14:20:00,84.8,71.3,29.84,West,265,8.0,12.0,64,0.00,,,0.00,Wunderground v.1.15,2013-02-26 19:20:00,
2013-02-26 14:25:00,84.7,70.7,29.83,South,187,7.0,12.0,63,0.00,,,0.00,Wunderground v.1.15,2013-02-26 19:25:00,
2013-02-26 14:30:00,83.9,70.4,29.83,South,172,7.0,12.0,64,0.00,,,0.00,Wunderground v.1.15,2013-02-26 19:30:00,
2013-02-26 14:40:00,83.3,69.4,29.83,NW,321,8.0,8.0,63,0.00,,,0.00,Wunderground v.1.15,2013-02-26 19:40:00,
2013-02-26 14:45:00,83.0,70.0,29.83,WSW,246,7.0,12.0,65,0.00,,,0.00,Wunderground v.1.15,2013-02-26 19:45:00,
2013-02-26 14:50:00,82.5,70.9,29.83,SSW,192,7.0,7.0,68,0.00,,,0.00,Wunderground v.1.15,2013-02-26 19:50:00,
2013-02-26 14:55:00,82.3,71.1,29.83,East,87,7.0,12.0,69,0.00,,,0.00,Wunderground v.1.15,2013-02-26 19:55:00,
2013-02-26 15:01:00,82.1,71.3,29.83,West,265,7.0,7.0,70,0.00,,,0.00,Wunderground v.1.15,2013-02-26 20:01:00,
2013-02-26 15:10:00,83.2,71.1,29.84,ESE,115,5.0,11.0,67,0.00,,,0.00,Wunderground v.1.15,2013-02-26 20:10:00,
2013-02-26 15:15:00,82.5,70.9,29.84,NW,320,6.0,6.0,68,0.00,,,0.00,Wunderground v.1.15,2013-02-26 20:15:00,
2013-02-26 15:20:00,81.9,71.2,29.85,East,86,7.0,7.0,70,0.00,,,0.00,Wunderground v.1.15,2013-02-26 20:20:00,
2013-02-26 15:25:00,81.6,70.9,29.85,SW,215,6.0,6.0,70,0.00,,,0.00,Wunderground v.1.15,2013-02-26 20:25:00,
2013-02-26 15:35:00,81.2,71.3,29.85,South,184,3.0,11.0,72,0.00,,,0.00,Wunderground v.1.15,2013-02-26 20:35:00,
2013-02-26 15:40:00,80.9,71.0,29.85,WNW,284,4.0,11.0,72,0.00,,,0.00,Wunderground v.1.15,2013-02-26 20:40:00,
2013-02-26 15:45:00,80.7,71.2,29.84,West,263,4.0,4.0,73,0.00,,,0.00,Wunderground v.1.15,2013-02-26 20:45:00,
2013-02-26 15:50:00,80.5,71.0,29.84,WSW,250,4.0,11.0,73,0.00,,,0.00,Wunderground v.1.15,2013-02-26 20:50:00,
2013-02-26 15:55:00,80.3,71.3,29.84,West,264,3.0,3.0,74,0.00,,,0.00,Wunderground v.1.15,2013-02-26 20:55:00,
2013-02-26 16:00:00,80.1,71.1,29.84,West,275,4.0,4.0,74,0.00,,,0.00,Wunderground v.1.15,2013-02-26 21:00:00,
2013-02-26 16:10:00,79.9,70.9,29.85,West,280,4.0,10.0,74,0.00,,,0.00,Wunderground v.1.15,2013-02-26 21:10:00,
2013-02-26 16:15:00,80.0,71.4,29.84,SW,217,3.0,10.0,75,0.00,,,0.00,Wunderground v.1.15,2013-02-26 21:15:00,
2013-02-26 16:20:00,80.2,71.2,29.84,WNW,292,3.0,10.0,74,0.00,,,0.00,Wunderground v.1.15,2013-02-26 21:20:00,
2013-02-26 16:25:00,80.1,71.5,29.85,SSW,209,3.0,10.0,75,0.00,,,0.00,Wunderground v.1.15,2013-02-26 21:25:00,
2013-02-26 16:30:00,80.1,71.5,29.85,WSW,248,4.0,4.0,75,0.00,,,0.00,Wunderground v.1.15,2013-02-26 21:30:00,
2013-02-26 16:40:00,79.6,71.4,29.85,SW,229,2.0,10.0,76,0.00,,,0.00,Wunderground v.1.15,2013-02-26 21:40:00,
2013-02-26 16:45:00,79.4,71.6,29.85,West,280,3.0,10.0,77,0.00,,,0.00,Wunderground v.1.15,2013-02-26 21:45:00,
2013-02-26 16:50:00,79.4,71.6,29.84,SW,214,3.0,10.0,77,0.00,,,0.00,Wunderground v.1.15,2013-02-26 21:50:00,
2013-02-26 16:55:00,79.3,71.5,29.84,South,177,3.0,10.0,77,0.00,,,0.00,Wunderground v.1.15,2013-02-26 21:55:00,
2013-02-26 17:00:00,79.3,71.8,29.84,SSW,205,2.0,2.0,78,0.00,,,0.00,Wunderground v.1.15,2013-02-26 22:00:00,
2013-02-26 17:10:00,80.2,71.9,29.84,North,355,3.0,5.0,76,0.00,,,0.00,Wunderground v.1.15,2013-02-26 22:10:00,
2013-02-26 17:15:00,79.8,71.6,29.84,West,270,3.0,7.0,76,0.00,,,0.00,Wunderground v.1.15,2013-02-26 22:15:00,
2013-02-26 17:20:00,79.4,71.6,29.84,WNW,295,4.0,5.0,77,0.00,,,0.00,Wunderground v.1.15,2013-02-26 22:20:00,
2013-02-26 17:25:00,79.0,71.6,29.84,West,266,5.0,5.0,78,0.00,,,0.00,Wunderground v.1.15,2013-02-26 22:25:00,
2013-02-26 17:30:00,78.9,71.8,29.84,West,265,3.0,4.0,79,0.00,,,0.00,Wunderground v.1.15,2013-02-26 22:30:00,
2013-02-26 17:40:00,78.9,71.5,29.84,West,281,2.0,2.0,78,0.00,,,0.00,Wunderground v.1.15,2013-02-26 22:40:00,
2013-02-26 17:45:00,78.8,71.7,29.84,WSW,257,3.0,3.0,79,0.00,,,0.00,Wunderground v.1.15,2013-02-26 22:45:00,
2013-02-26 17:50:00,78.7,71.6,29.84,SW,217,2.0,2.0,79,0.00,,,0.00,Wunderground v.1.15,2013-02-26 22:50:00,
2013-02-26 17:55:00,78.7,72.0,29.84,WSW,252,1.0,4.0,80,0.00,,,0.00,Wunderground v.1.15,2013-02-26 22:55:00,
2013-02-26 18:01:00,78.5,71.8,29.84,WSW,257,1.0,1.0,80,0.00,,,0.00,Wunderground v.1.15,2013-02-26 23:01:00,
2013-02-26 18:10:00,78.4,71.3,29.86,WSW,250,3.0,5.0,79,0.00,,,0.00,Wunderground v.1.15,2013-02-26 23:10:00,
2013-02-26 18:15:00,78.4,71.3,29.85,South,191,3.0,3.0,79,0.00,,,0.00,Wunderground v.1.15,2013-02-26 23:15:00,
2013-02-26 18:25:00,78.3,71.2,29.86,WNW,290,2.0,8.0,79,0.00,,,0.00,Wunderground v.1.15,2013-02-26 23:25:00,
2013-02-26 18:30:00,78.2,71.5,29.86,West,281,2.0,8.0,80,0.00,,,0.00,Wunderground v.1.15,2013-02-26 23:30:00,
2013-02-26 18:35:00,78.2,71.5,29.85,WSW,247,1.0,1.0,80,0.00,,,0.00,Wunderground v.1.15,2013-02-26 23:35:00,
2013-02-26 18:45:00,77.8,71.5,29.86,West,270,1.0,1.0,81,0.00,,,0.00,Wunderground v.1.15,2013-02-26 23:45:00,
2013-02-26 18:50:00,77.7,71.4,29.86,SSW,207,1.0,1.0,81,0.00,,,0.00,Wunderground v.1.15,2013-02-26 23:50:00,
2013-02-26 18:55:00,77.6,71.3,29.87,East,82,1.0,2.0,81,0.00,,,0.00,Wunderground v.1.15,2013-02-26 23:55:00,
2013-02-26 19:00:00,77.5,71.6,29.87,SW,228,1.0,1.0,82,0.00,,,0.00,Wunderground v.1.15,2013-02-27 00:00:00,
2013-02-26 19:10:00,77.2,71.6,29.87,SW,220,0.0,5.0,83,0.00,,,0.00,Wunderground v.1.15,2013-02-27 00:10:00,
2013-02-26 19:15:00,77.1,71.5,29.87,SW,225,0.0,5.0,83,0.00,,,0.00,Wunderground v.1.15,2013-02-27 00:15:00,
2013-02-26 19:20:00,77.0,71.4,29.86,SE,133,0.0,5.0,83,0.00,,,0.00,Wunderground v.1.15,2013-02-27 00:20:00,
2013-02-26 19:30:00,76.9,71.7,29.86,WSW,243,1.0,1.0,84,0.00,,,0.00,Wunderground v.1.15,2013-02-27 00:30:00,
2013-02-26 19:35:00,76.8,71.6,29.86,SW,229,1.0,5.0,84,0.00,,,0.00,Wunderground v.1.15,2013-02-27 00:35:00,
2013-02-26 19:40:00,76.9,71.7,29.87,WSW,242,1.0,1.0,84,0.00,,,0.00,Wunderground v.1.15,2013-02-27 00:40:00,
2013-02-26 19:50:00,77.0,71.8,29.87,SSW,205,0.0,5.0,84,0.00,,,0.00,Wunderground v.1.15,2013-02-27 00:50:00,
2013-02-26 19:55:00,76.8,71.6,29.88,SSW,213,0.0,5.0,84,0.00,,,0.00,Wunderground v.1.15,2013-02-27 00:55:00,
2013-02-26 20:01:00,76.7,71.5,29.88,SSW,196,0.0,2.0,84,0.00,,,0.00,Wunderground v.1.15,2013-02-27 01:01:00,
2013-02-26 20:10:00,76.8,71.6,29.88,WSW,254,0.0,4.0,84,0.00,,,0.00,Wunderground v.1.15,2013-02-27 01:10:00,
2013-02-26 20:15:00,76.9,71.7,29.88,WSW,241,1.0,1.0,84,0.00,,,0.00,Wunderground v.1.15,2013-02-27 01:15:00,
2013-02-26 20:25:00,76.7,71.8,29.89,SSW,203,0.0,2.0,85,0.00,,,0.00,Wunderground v.1.15,2013-02-27 01:25:00,
2013-02-26 20:30:00,76.7,71.8,29.89,SW,232,0.0,2.0,85,0.00,,,0.00,Wunderground v.1.15,2013-02-27 01:30:00,
2013-02-26 20:35:00,76.7,71.8,29.89,WSW,241,0.0,2.0,85,0.00,,,0.00,Wunderground v.1.15,2013-02-27 01:35:00,
2013-02-26 20:40:00,76.6,71.7,29.89,SW,234,0.0,2.0,85,0.00,,,0.00,Wunderground v.1.15,2013-02-27 01:40:00,
2013-02-26 20:50:00,76.5,72.0,29.89,West,266,0.0,2.0,86,0.00,,,0.00,Wunderground v.1.15,2013-02-27 01:50:00,
2013-02-26 20:55:00,76.4,71.9,29.90,West,269,1.0,1.0,86,0.00,,,0.00,Wunderground v.1.15,2013-02-27 01:55:00,
2013-02-26 21:00:00,76.2,71.7,29.90,West,275,1.0,8.0,86,0.00,,,0.00,Wunderground v.1.15,2013-02-27 02:00:00,
2013-02-26 21:10:00,76.0,71.5,29.90,SW,223,0.0,8.0,86,0.00,,,0.00,Wunderground v.1.15,2013-02-27 02:10:00,
2013-02-26 21:15:00,75.8,71.7,29.90,SW,223,0.0,8.0,87,0.00,,,0.00,Wunderground v.1.15,2013-02-27 02:15:00,
2013-02-26 21:20:00,75.8,71.7,29.90,WNW,285,1.0,1.0,87,0.00,,,0.00,Wunderground v.1.15,2013-02-27 02:20:00,
2013-02-26 21:30:00,75.5,71.7,29.90,WNW,286,1.0,1.0,88,0.00,,,0.00,Wunderground v.1.15,2013-02-27 02:30:00,
2013-02-26 21:40:00,75.3,71.5,29.91,WNW,288,1.0,8.0,88,0.00,,,0.00,Wunderground v.1.15,2013-02-27 02:40:00,
2013-02-26 21:50:00,75.1,71.6,29.91,WNW,289,2.0,8.0,89,0.00,,,0.00,Wunderground v.1.15,2013-02-27 02:50:00,
2013-02-26 21:55:00,74.9,71.4,29.91,WNW,286,3.0,8.0,89,0.00,,,0.00,Wunderground v.1.15,2013-02-27 02:55:00,
2013-02-26 22:00:00,74.9,71.4,29.91,West,281,2.0,2.0,89,0.00,,,0.00,Wunderground v.1.15,2013-02-27 03:00:00,
2013-02-26 22:10:00,74.7,71.6,29.91,WNW,288,4.0,4.0,90,0.00,,,0.00,Wunderground v.1.15,2013-02-27 03:10:00,
2013-02-26 22:15:00,74.7,71.6,29.91,WNW,300,5.0,7.0,90,0.00,,,0.00,Wunderground v.1.15,2013-02-27 03:15:00,
2013-02-26 22:25:00,74.5,71.0,29.91,WNW,292,6.0,6.0,89,0.00,,,0.00,Wunderground v.1.15,2013-02-27 03:25:00,
2013-02-26 22:30:00,74.2,71.1,29.92,WNW,291,6.0,6.0,90,0.00,,,0.00,Wunderground v.1.15,2013-02-27 03:30:00,
2013-02-26 22:35:00,74.0,70.9,29.92,WNW,295,6.0,6.0,90,0.00,,,0.00,Wunderground v.1.15,2013-02-27 03:35:00,
2013-02-26 22:40:00,73.8,70.7,29.92,WNW,294,5.0,7.0,90,0.00,,,0.00,Wunderground v.1.15,2013-02-27 03:40:00,
2013-02-26 22:45:00,73.6,70.8,29.92,West,274,6.0,7.0,91,0.00,,,0.00,Wunderground v.1.15,2013-02-27 03:45:00,
2013-02-26 22:50:00,73.5,70.7,29.92,WNW,286,5.0,5.0,91,0.00,,,0.00,Wunderground v.1.15,2013-02-27 03:50:00,
2013-02-26 23:00:00,73.4,70.3,29.92,WNW,302,4.0,8.0,90,0.00,,,0.00,Wunderground v.1.15,2013-02-27 04:00:00,
2013-02-26 23:10:00,73.1,70.0,29.92,WNW,287,4.0,8.0,90,0.00,,,0.00,Wunderground v.1.15,2013-02-27 04:10:00,
2013-02-26 23:15:00,72.8,69.7,29.92,NW,305,5.0,9.0,90,0.00,,,0.00,Wunderground v.1.15,2013-02-27 04:15:00,
2013-02-26 23:20:00,72.6,69.5,29.92,WNW,296,7.0,10.0,90,0.00,,,0.00,Wunderground v.1.15,2013-02-27 04:20:00,
2013-02-26 23:25:00,72.4,69.3,29.92,WNW,295,7.0,10.0,90,0.00,,,0.00,Wunderground v.1.15,2013-02-27 04:25:00,
2013-02-26 23:35:00,72.0,69.2,29.91,WNW,287,4.0,8.0,91,0.00,,,0.00,Wunderground v.1.15,2013-02-27 04:35:00,
2013-02-26 23:40:00,71.8,69.0,29.91,WNW,287,2.0,8.0,91,0.00,,,0.00,Wunderground v.1.15,2013-02-27 04:40:00,
2013-02-26 23:45:00,71.7,68.9,29.91,WNW,287,2.0,8.0,91,0.00,,,0.00,Wunderground v.1.15,2013-02-27 04:45:00,
2013-02-26 23:50:00,71.5,68.7,29.91,WNW,287,1.0,1.0,91,0.00,,,0.00,Wunderground v.1.15,2013-02-27 04:50:00,
2013-02-26 23:55:00,71.3,68.2,29.91,WNW,287,0.0,8.0,90,0.00,,,0.00,Wunderground v.1.15,2013-02-27 04:55:00,